sensor_id;sensor_type;location;lat;lon;timestamp;pressure;altitude;pressure_sealevel;temperature;humidity
73501;BME280;61721;42.206;25.320;2023-11-19T00:01:33;99170.44;;;7.19;54.71
73501;BME280;61721;42.206;25.320;2023-11-19T00:04:00;99164.31;;;7.08;54.34
73501;BME280;61721;42.206;25.320;2023-11-19T00:06:30;99166.28;;;7.24;54.69
73501;BME280;61721;42.206;25.320;2023-11-19T00:09:00;99152.00;;;7.15;53.85
73501;BME280;61721;42.206;25.320;2023-11-19T00:11:29;99169.72;;;7.34;53.41
73501;BME280;61721;42.206;25.320;2023-11-19T00:13:57;99173.00;;;7.28;52.99
73501;BME280;61721;42.206;25.320;2023-11-19T00:16:24;99180.66;;;7.23;53.40
73501;BME280;61721;42.206;25.320;2023-11-19T00:18:51;99193.31;;;7.57;53.04
73501;BME280;61721;42.206;25.320;2023-11-19T00:21:19;99192.44;;;7.30;52.77
73501;BME280;61721;42.206;25.320;2023-11-19T00:23:46;99195.59;;;7.08;54.12
73501;BME280;61721;42.206;25.320;2023-11-19T00:26:15;99191.78;;;7.10;54.02
73501;BME280;61721;42.206;25.320;2023-11-19T00:28:42;99193.47;;;7.11;54.08
73501;BME280;61721;42.206;25.320;2023-11-19T00:31:10;99183.34;;;7.23;54.15
73501;BME280;61721;42.206;25.320;2023-11-19T00:33:38;99183.19;;;7.25;54.27
73501;BME280;61721;42.206;25.320;2023-11-19T00:36:06;99188.56;;;7.07;54.87
73501;BME280;61721;42.206;25.320;2023-11-19T00:38:34;99181.47;;;6.98;55.23
73501;BME280;61721;42.206;25.320;2023-11-19T00:41:01;99191.63;;;6.94;55.50
73501;BME280;61721;42.206;25.320;2023-11-19T00:43:31;99182.16;;;6.82;56.38
73501;BME280;61721;42.206;25.320;2023-11-19T00:45:58;99185.44;;;6.94;56.57
73501;BME280;61721;42.206;25.320;2023-11-19T00:48:26;99176.41;;;6.95;56.88
73501;BME280;61721;42.206;25.320;2023-11-19T00:50:54;99179.31;;;7.19;56.10
73501;BME280;61721;42.206;25.320;2023-11-19T00:53:21;99181.00;;;6.84;57.09
73501;BME280;61721;42.206;25.320;2023-11-19T00:55:48;99178.41;;;6.93;57.47
73501;BME280;61721;42.206;25.320;2023-11-19T00:58:16;99179.47;;;7.00;57.19
73501;BME280;61721;42.206;25.320;2023-11-19T01:00:45;99189.25;;;6.91;57.82
73501;BME280;61721;42.206;25.320;2023-11-19T01:03:12;99196.53;;;6.99;57.39
73501;BME280;61721;42.206;25.320;2023-11-19T01:05:41;99201.72;;;7.00;57.44
73501;BME280;61721;42.206;25.320;2023-11-19T01:08:09;99215.41;;;7.15;56.91
73501;BME280;61721;42.206;25.320;2023-11-19T01:10:43;99205.31;;;7.09;56.94
73501;BME280;61721;42.206;25.320;2023-11-19T01:13:11;99208.53;;;6.95;56.59
73501;BME280;61721;42.206;25.320;2023-11-19T01:15:38;99194.91;;;6.88;56.61
73501;BME280;61721;42.206;25.320;2023-11-19T01:18:08;99205.47;;;6.90;56.83
73501;BME280;61721;42.206;25.320;2023-11-19T01:20:36;99218.09;;;7.15;56.08
73501;BME280;61721;42.206;25.320;2023-11-19T01:23:04;99219.94;;;6.97;56.60
73501;BME280;61721;42.206;25.320;2023-11-19T01:25:32;99218.75;;;6.81;57.46
73501;BME280;61721;42.206;25.320;2023-11-19T01:28:01;99222.22;;;6.92;56.75
73501;BME280;61721;42.206;25.320;2023-11-19T01:30:28;99227.94;;;6.97;56.41
73501;BME280;61721;42.206;25.320;2023-11-19T01:32:56;99211.13;;;7.04;56.22
73501;BME280;61721;42.206;25.320;2023-11-19T01:35:25;99215.25;;;6.99;56.63
73501;BME280;61721;42.206;25.320;2023-11-19T01:37:52;99219.78;;;6.98;56.19
73501;BME280;61721;42.206;25.320;2023-11-19T01:40:21;99222.91;;;6.94;56.70
73501;BME280;61721;42.206;25.320;2023-11-19T01:42:48;99216.03;;;7.09;56.22
73501;BME280;61721;42.206;25.320;2023-11-19T01:45:22;99213.34;;;7.09;56.22
73501;BME280;61721;42.206;25.320;2023-11-19T01:47:54;99204.41;;;6.82;57.01
73501;BME280;61721;42.206;25.320;2023-11-19T01:50:22;99205.31;;;6.73;57.08
73501;BME280;61721;42.206;25.320;2023-11-19T01:52:53;99199.94;;;6.73;57.18
73501;BME280;61721;42.206;25.320;2023-11-19T01:55:21;99196.44;;;6.91;57.33
73501;BME280;61721;42.206;25.320;2023-11-19T01:57:49;99190.09;;;6.74;57.54
73501;BME280;61721;42.206;25.320;2023-11-19T02:00:18;99189.69;;;6.69;57.22
73501;BME280;61721;42.206;25.320;2023-11-19T02:02:46;99186.72;;;6.72;57.32
73501;BME280;61721;42.206;25.320;2023-11-19T02:05:27;99190.69;;;6.68;57.33
73501;BME280;61721;42.206;25.320;2023-11-19T02:07:56;99193.97;;;6.62;57.58
73501;BME280;61721;42.206;25.320;2023-11-19T02:10:23;99187.66;;;6.80;57.04
73501;BME280;61721;42.206;25.320;2023-11-19T02:12:50;99168.38;;;6.59;57.37
73501;BME280;61721;42.206;25.320;2023-11-19T02:15:18;99174.16;;;6.55;57.91
73501;BME280;61721;42.206;25.320;2023-11-19T02:17:45;99168.94;;;6.35;58.47
73501;BME280;61721;42.206;25.320;2023-11-19T02:20:12;99175.56;;;6.76;57.82
73501;BME280;61721;42.206;25.320;2023-11-19T02:22:42;99181.13;;;6.65;58.02
73501;BME280;61721;42.206;25.320;2023-11-19T02:25:17;99177.16;;;7.05;57.30
73501;BME280;61721;42.206;25.320;2023-11-19T02:27:54;99185.13;;;6.97;57.50
73501;BME280;61721;42.206;25.320;2023-11-19T02:30:30;99173.72;;;6.77;57.87
73501;BME280;61721;42.206;25.320;2023-11-19T02:32:58;99178.94;;;6.78;58.00
73501;BME280;61721;42.206;25.320;2023-11-19T02:35:32;99174.09;;;6.64;58.02
73501;BME280;61721;42.206;25.320;2023-11-19T02:38:00;99171.66;;;6.71;57.44
73501;BME280;61721;42.206;25.320;2023-11-19T02:40:29;99168.59;;;6.48;58.26
73501;BME280;61721;42.206;25.320;2023-11-19T02:42:58;99156.06;;;6.66;57.95
73501;BME280;61721;42.206;25.320;2023-11-19T02:45:32;99154.63;;;6.72;57.95
73501;BME280;61721;42.206;25.320;2023-11-19T02:47:59;99154.47;;;6.73;56.83
73501;BME280;61721;42.206;25.320;2023-11-19T02:50:28;99153.63;;;6.55;57.10
73501;BME280;61721;42.206;25.320;2023-11-19T02:52:57;99162.78;;;6.53;57.73
73501;BME280;61721;42.206;25.320;2023-11-19T02:55:24;99156.69;;;6.60;57.63
73501;BME280;61721;42.206;25.320;2023-11-19T02:57:54;99168.69;;;6.74;56.59
73501;BME280;61721;42.206;25.320;2023-11-19T03:00:23;99179.53;;;6.90;56.53
73501;BME280;61721;42.206;25.320;2023-11-19T03:02:58;99199.88;;;6.65;57.49
73501;BME280;61721;42.206;25.320;2023-11-19T03:05:27;99216.63;;;6.85;57.61
73501;BME280;61721;42.206;25.320;2023-11-19T03:07:55;99213.56;;;7.15;56.74
73501;BME280;61721;42.206;25.320;2023-11-19T03:10:23;99214.50;;;7.24;56.36
73501;BME280;61721;42.206;25.320;2023-11-19T03:12:50;99212.34;;;6.74;56.64
73501;BME280;61721;42.206;25.320;2023-11-19T03:15:18;99204.22;;;6.66;57.01
73501;BME280;61721;42.206;25.320;2023-11-19T03:17:48;99201.16;;;6.61;57.51
73501;BME280;61721;42.206;25.320;2023-11-19T03:20:15;99210.84;;;6.44;58.36
73501;BME280;61721;42.206;25.320;2023-11-19T03:22:42;99211.44;;;6.38;59.01
73501;BME280;61721;42.206;25.320;2023-11-19T03:25:10;99214.09;;;6.83;57.73
73501;BME280;61721;42.206;25.320;2023-11-19T03:27:39;99211.25;;;6.67;57.99
73501;BME280;61721;42.206;25.320;2023-11-19T03:30:08;99223.00;;;6.57;57.70
73501;BME280;61721;42.206;25.320;2023-11-19T03:32:36;99218.59;;;6.65;56.85
73501;BME280;61721;42.206;25.320;2023-11-19T03:35:06;99215.13;;;6.55;56.84
73501;BME280;61721;42.206;25.320;2023-11-19T03:37:34;99208.31;;;6.43;57.24
73501;BME280;61721;42.206;25.320;2023-11-19T03:40:02;99214.75;;;6.50;57.06
73501;BME280;61721;42.206;25.320;2023-11-19T03:42:29;99211.06;;;6.51;56.97
73501;BME280;61721;42.206;25.320;2023-11-19T03:44:57;99218.16;;;6.42;56.77
73501;BME280;61721;42.206;25.320;2023-11-19T03:47:24;99217.34;;;6.60;56.22
73501;BME280;61721;42.206;25.320;2023-11-19T03:49:52;99221.22;;;6.47;56.35
73501;BME280;61721;42.206;25.320;2023-11-19T03:52:20;99231.44;;;6.62;56.53
73501;BME280;61721;42.206;25.320;2023-11-19T03:54:48;99217.25;;;6.51;56.69
73501;BME280;61721;42.206;25.320;2023-11-19T03:57:15;99227.91;;;6.61;56.80
73501;BME280;61721;42.206;25.320;2023-11-19T03:59:42;99227.31;;;6.67;56.64
73501;BME280;61721;42.206;25.320;2023-11-19T04:02:09;99231.56;;;6.60;56.54
73501;BME280;61721;42.206;25.320;2023-11-19T04:04:37;99242.16;;;6.79;56.73
73501;BME280;61721;42.206;25.320;2023-11-19T04:07:04;99247.88;;;6.67;56.37
73501;BME280;61721;42.206;25.320;2023-11-19T04:09:33;99249.59;;;6.58;56.29
73501;BME280;61721;42.206;25.320;2023-11-19T04:12:01;99263.81;;;6.59;56.41
73501;BME280;61721;42.206;25.320;2023-11-19T04:14:29;99270.44;;;6.82;55.45
73501;BME280;61721;42.206;25.320;2023-11-19T04:16:57;99273.91;;;6.92;55.43
73501;BME280;61721;42.206;25.320;2023-11-19T04:19:24;99282.56;;;6.59;55.46
73501;BME280;61721;42.206;25.320;2023-11-19T04:21:51;99289.84;;;6.66;55.50
73501;BME280;61721;42.206;25.320;2023-11-19T04:24:27;99284.97;;;6.79;55.40
73501;BME280;61721;42.206;25.320;2023-11-19T04:27:10;99294.09;;;6.59;55.07
73501;BME280;61721;42.206;25.320;2023-11-19T04:29:39;99296.56;;;6.98;55.19
73501;BME280;61721;42.206;25.320;2023-11-19T04:32:06;99291.94;;;6.90;54.56
73501;BME280;61721;42.206;25.320;2023-11-19T04:34:34;99302.47;;;7.19;53.69
73501;BME280;61721;42.206;25.320;2023-11-19T04:37:03;99309.28;;;7.13;53.90
73501;BME280;61721;42.206;25.320;2023-11-19T04:39:30;99316.53;;;7.21;53.26
73501;BME280;61721;42.206;25.320;2023-11-19T04:41:58;99314.78;;;7.12;53.60
73501;BME280;61721;42.206;25.320;2023-11-19T04:44:27;99315.22;;;7.07;53.71
73501;BME280;61721;42.206;25.320;2023-11-19T04:46:55;99325.19;;;7.15;53.57
73501;BME280;61721;42.206;25.320;2023-11-19T04:49:23;99325.31;;;6.96;54.18
73501;BME280;61721;42.206;25.320;2023-11-19T04:51:52;99330.09;;;7.37;53.19
73501;BME280;61721;42.206;25.320;2023-11-19T04:54:26;99340.44;;;7.32;53.22
73501;BME280;61721;42.206;25.320;2023-11-19T04:56:54;99340.22;;;6.98;53.15
73501;BME280;61721;42.206;25.320;2023-11-19T04:59:21;99356.22;;;6.80;54.39
73501;BME280;61721;42.206;25.320;2023-11-19T05:01:50;99354.09;;;7.11;53.96
73501;BME280;61721;42.206;25.320;2023-11-19T05:04:17;99353.66;;;7.16;54.09
73501;BME280;61721;42.206;25.320;2023-11-19T05:06:45;99358.09;;;7.25;53.87
73501;BME280;61721;42.206;25.320;2023-11-19T05:09:13;99367.22;;;6.77;55.35
73501;BME280;61721;42.206;25.320;2023-11-19T05:11:40;99362.69;;;6.88;55.49
73501;BME280;61721;42.206;25.320;2023-11-19T05:14:07;99359.00;;;6.89;55.59
73501;BME280;61721;42.206;25.320;2023-11-19T05:16:35;99356.03;;;6.92;55.57
73501;BME280;61721;42.206;25.320;2023-11-19T05:19:04;99359.75;;;6.81;55.31
73501;BME280;61721;42.206;25.320;2023-11-19T05:21:31;99357.53;;;7.04;55.23
73501;BME280;61721;42.206;25.320;2023-11-19T05:23:59;99356.91;;;6.55;56.55
73501;BME280;61721;42.206;25.320;2023-11-19T05:26:26;99354.91;;;6.57;56.71
73501;BME280;61721;42.206;25.320;2023-11-19T05:28:53;99363.03;;;6.28;57.64
73501;BME280;61721;42.206;25.320;2023-11-19T05:31:21;99367.13;;;6.23;57.21
73501;BME280;61721;42.206;25.320;2023-11-19T05:33:48;99359.91;;;6.42;56.61
73501;BME280;61721;42.206;25.320;2023-11-19T05:36:17;99358.34;;;6.40;56.64
73501;BME280;61721;42.206;25.320;2023-11-19T05:38:44;99360.53;;;6.64;56.16
73501;BME280;61721;42.206;25.320;2023-11-19T05:41:12;99357.03;;;6.54;56.28
73501;BME280;61721;42.206;25.320;2023-11-19T05:43:40;99363.16;;;6.73;55.94
73501;BME280;61721;42.206;25.320;2023-11-19T05:46:08;99363.22;;;6.64;56.37
73501;BME280;61721;42.206;25.320;2023-11-19T05:48:35;99365.25;;;6.79;55.67
73501;BME280;61721;42.206;25.320;2023-11-19T05:51:02;99358.25;;;6.69;55.76
73501;BME280;61721;42.206;25.320;2023-11-19T05:53:32;99362.88;;;6.39;56.55
73501;BME280;61721;42.206;25.320;2023-11-19T05:55:59;99358.63;;;6.46;56.34
73501;BME280;61721;42.206;25.320;2023-11-19T05:58:29;99367.59;;;6.55;56.08
73501;BME280;61721;42.206;25.320;2023-11-19T06:00:58;99367.38;;;6.39;56.92
73501;BME280;61721;42.206;25.320;2023-11-19T06:03:27;99377.38;;;6.37;57.34
73501;BME280;61721;42.206;25.320;2023-11-19T06:05:54;99390.41;;;6.59;56.60
73501;BME280;61721;42.206;25.320;2023-11-19T06:08:21;99380.44;;;6.42;56.95
73501;BME280;61721;42.206;25.320;2023-11-19T06:10:50;99386.78;;;6.41;57.62
73501;BME280;61721;42.206;25.320;2023-11-19T06:13:17;99379.22;;;6.27;58.67
73501;BME280;61721;42.206;25.320;2023-11-19T06:15:45;99386.00;;;6.21;58.29
73501;BME280;61721;42.206;25.320;2023-11-19T06:18:12;99386.13;;;6.19;58.73
73501;BME280;61721;42.206;25.320;2023-11-19T06:20:41;99396.28;;;6.63;57.57
73501;BME280;61721;42.206;25.320;2023-11-19T06:23:08;99389.50;;;6.31;58.43
73501;BME280;61721;42.206;25.320;2023-11-19T06:25:35;99395.97;;;6.19;58.84
73501;BME280;61721;42.206;25.320;2023-11-19T06:28:04;99399.28;;;6.50;57.87
73501;BME280;61721;42.206;25.320;2023-11-19T06:30:31;99400.91;;;6.24;57.88
73501;BME280;61721;42.206;25.320;2023-11-19T06:32:59;99384.41;;;6.38;57.33
73501;BME280;61721;42.206;25.320;2023-11-19T06:35:26;99396.34;;;6.43;56.85
73501;BME280;61721;42.206;25.320;2023-11-19T06:37:55;99394.56;;;6.15;57.58
73501;BME280;61721;42.206;25.320;2023-11-19T06:40:23;99402.16;;;6.29;57.31
73501;BME280;61721;42.206;25.320;2023-11-19T06:42:50;99413.25;;;6.34;57.38
73501;BME280;61721;42.206;25.320;2023-11-19T06:45:19;99416.94;;;6.14;57.57
73501;BME280;61721;42.206;25.320;2023-11-19T06:47:48;99420.59;;;6.32;56.96
73501;BME280;61721;42.206;25.320;2023-11-19T06:50:15;99425.31;;;6.58;56.38
73501;BME280;61721;42.206;25.320;2023-11-19T06:52:44;99423.72;;;6.74;56.20
73501;BME280;61721;42.206;25.320;2023-11-19T06:55:12;99427.13;;;7.04;55.14
73501;BME280;61721;42.206;25.320;2023-11-19T06:57:39;99431.19;;;7.08;55.33
73501;BME280;61721;42.206;25.320;2023-11-19T07:00:08;99438.00;;;7.30;54.95
73501;BME280;61721;42.206;25.320;2023-11-19T07:02:38;99441.50;;;7.30;54.72
73501;BME280;61721;42.206;25.320;2023-11-19T07:05:06;99418.88;;;7.42;54.48
73501;BME280;61721;42.206;25.320;2023-11-19T07:07:34;99442.34;;;7.58;54.25
73501;BME280;61721;42.206;25.320;2023-11-19T07:10:03;99440.41;;;8.22;52.94
73501;BME280;61721;42.206;25.320;2023-11-19T07:12:32;99433.81;;;7.98;52.50
73501;BME280;61721;42.206;25.320;2023-11-19T07:15:02;99428.28;;;8.18;52.94
73501;BME280;61721;42.206;25.320;2023-11-19T07:17:30;99445.44;;;8.25;52.58
73501;BME280;61721;42.206;25.320;2023-11-19T07:19:59;99444.38;;;8.18;51.95
73501;BME280;61721;42.206;25.320;2023-11-19T07:22:26;99441.63;;;8.27;51.78
73501;BME280;61721;42.206;25.320;2023-11-19T07:24:55;99439.47;;;8.31;52.01
73501;BME280;61721;42.206;25.320;2023-11-19T07:27:22;99436.94;;;8.99;50.33
73501;BME280;61721;42.206;25.320;2023-11-19T07:29:50;99444.44;;;8.61;50.49
73501;BME280;61721;42.206;25.320;2023-11-19T07:32:17;99438.53;;;8.58;50.51
73501;BME280;61721;42.206;25.320;2023-11-19T07:34:45;99458.28;;;8.74;49.87
73501;BME280;61721;42.206;25.320;2023-11-19T07:37:14;99458.22;;;8.92;49.51
73501;BME280;61721;42.206;25.320;2023-11-19T07:39:42;99466.25;;;9.18;48.62
73501;BME280;61721;42.206;25.320;2023-11-19T07:42:09;99461.50;;;9.12;48.30
73501;BME280;61721;42.206;25.320;2023-11-19T07:44:37;99471.94;;;9.15;48.31
73501;BME280;61721;42.206;25.320;2023-11-19T07:47:04;99484.97;;;9.36;48.31
73501;BME280;61721;42.206;25.320;2023-11-19T07:49:31;99476.03;;;9.27;48.19
73501;BME280;61721;42.206;25.320;2023-11-19T07:51:59;99485.59;;;9.30;48.32
73501;BME280;61721;42.206;25.320;2023-11-19T07:54:28;99485.31;;;9.41;47.77
73501;BME280;61721;42.206;25.320;2023-11-19T07:56:55;99488.41;;;9.54;47.82
73501;BME280;61721;42.206;25.320;2023-11-19T07:59:23;99491.31;;;9.69;47.24
73501;BME280;61721;42.206;25.320;2023-11-19T08:01:50;99495.44;;;10.14;46.30
73501;BME280;61721;42.206;25.320;2023-11-19T08:04:17;99501.38;;;9.67;46.94
73501;BME280;61721;42.206;25.320;2023-11-19T08:06:45;99510.91;;;10.12;46.58
73501;BME280;61721;42.206;25.320;2023-11-19T08:09:12;99511.91;;;10.02;46.44
73501;BME280;61721;42.206;25.320;2023-11-19T08:11:42;99493.47;;;10.48;45.04
73501;BME280;61721;42.206;25.320;2023-11-19T08:14:09;99496.84;;;10.34;45.91
73501;BME280;61721;42.206;25.320;2023-11-19T08:16:38;99499.16;;;10.13;45.65
73501;BME280;61721;42.206;25.320;2023-11-19T08:19:07;99491.44;;;10.42;44.61
73501;BME280;61721;42.206;25.320;2023-11-19T08:21:34;99489.75;;;10.73;44.56
73501;BME280;61721;42.206;25.320;2023-11-19T08:24:01;99501.19;;;10.76;44.40
73501;BME280;61721;42.206;25.320;2023-11-19T08:26:29;99497.56;;;11.79;42.55
73501;BME280;61721;42.206;25.320;2023-11-19T08:28:58;99484.94;;;11.24;43.64
73501;BME280;61721;42.206;25.320;2023-11-19T08:31:25;99499.81;;;11.59;42.92
73501;BME280;61721;42.206;25.320;2023-11-19T08:33:53;99495.44;;;10.95;43.80
73501;BME280;61721;42.206;25.320;2023-11-19T08:36:20;99501.13;;;11.16;43.00
73501;BME280;61721;42.206;25.320;2023-11-19T08:38:47;99506.44;;;11.49;41.85
73501;BME280;61721;42.206;25.320;2023-11-19T08:41:23;99520.69;;;11.65;41.78
73501;BME280;61721;42.206;25.320;2023-11-19T08:43:50;99521.34;;;11.20;41.95
73501;BME280;61721;42.206;25.320;2023-11-19T08:46:19;99522.84;;;11.70;41.70
73501;BME280;61721;42.206;25.320;2023-11-19T08:48:47;99517.72;;;11.44;41.48
73501;BME280;61721;42.206;25.320;2023-11-19T08:51:13;99519.66;;;11.66;41.09
73501;BME280;61721;42.206;25.320;2023-11-19T08:53:40;99514.19;;;12.22;40.93
73501;BME280;61721;42.206;25.320;2023-11-19T08:56:08;99519.09;;;11.87;41.78
73501;BME280;61721;42.206;25.320;2023-11-19T08:58:35;99502.06;;;11.87;41.24
73501;BME280;61721;42.206;25.320;2023-11-19T09:01:02;99512.03;;;11.86;41.10
73501;BME280;61721;42.206;25.320;2023-11-19T09:03:32;99524.75;;;12.00;41.76
73501;BME280;61721;42.206;25.320;2023-11-19T09:06:00;99513.16;;;12.23;41.37
73501;BME280;61721;42.206;25.320;2023-11-19T09:08:27;99522.28;;;12.45;39.88
73501;BME280;61721;42.206;25.320;2023-11-19T09:10:55;99525.34;;;12.42;40.30
73501;BME280;61721;42.206;25.320;2023-11-19T09:13:22;99527.31;;;12.71;39.78
73501;BME280;61721;42.206;25.320;2023-11-19T09:15:50;99512.63;;;12.73;39.20
73501;BME280;61721;42.206;25.320;2023-11-19T09:18:17;99516.41;;;12.41;39.34
73501;BME280;61721;42.206;25.320;2023-11-19T09:20:46;99510.81;;;12.20;40.19
73501;BME280;61721;42.206;25.320;2023-11-19T09:23:13;99499.88;;;11.90;40.58
73501;BME280;61721;42.206;25.320;2023-11-19T09:25:40;99508.31;;;12.64;39.78
73501;BME280;61721;42.206;25.320;2023-11-19T09:28:08;99504.22;;;12.68;38.29
73501;BME280;61721;42.206;25.320;2023-11-19T09:30:37;99497.31;;;13.18;38.05
73501;BME280;61721;42.206;25.320;2023-11-19T09:33:04;99510.59;;;12.90;38.19
73501;BME280;61721;42.206;25.320;2023-11-19T09:35:32;99514.19;;;13.79;36.86
73501;BME280;61721;42.206;25.320;2023-11-19T09:38:01;99510.66;;;13.63;36.70
73501;BME280;61721;42.206;25.320;2023-11-19T09:40:31;99502.09;;;13.30;37.36
73501;BME280;61721;42.206;25.320;2023-11-19T09:42:58;99498.31;;;13.90;36.34
73501;BME280;61721;42.206;25.320;2023-11-19T09:45:27;99498.78;;;13.79;36.11
73501;BME280;61721;42.206;25.320;2023-11-19T09:47:57;99494.88;;;14.18;36.41
73501;BME280;61721;42.206;25.320;2023-11-19T09:50:26;99486.75;;;13.82;36.04
73501;BME280;61721;42.206;25.320;2023-11-19T09:52:53;99490.94;;;14.20;35.06
73501;BME280;61721;42.206;25.320;2023-11-19T09:55:22;99498.53;;;14.46;35.03
73501;BME280;61721;42.206;25.320;2023-11-19T09:57:51;99497.31;;;13.77;35.60
73501;BME280;61721;42.206;25.320;2023-11-19T10:00:20;99489.41;;;13.96;35.82
73501;BME280;61721;42.206;25.320;2023-11-19T10:02:48;99493.44;;;14.58;34.87
73501;BME280;61721;42.206;25.320;2023-11-19T10:05:16;99504.91;;;14.03;34.90
73501;BME280;61721;42.206;25.320;2023-11-19T10:07:45;99504.69;;;15.39;32.49
73501;BME280;61721;42.206;25.320;2023-11-19T10:10:12;99508.59;;;15.64;32.16
73501;BME280;61721;42.206;25.320;2023-11-19T10:12:47;99503.91;;;15.86;31.89
73501;BME280;61721;42.206;25.320;2023-11-19T10:15:22;99506.34;;;15.74;32.37
73501;BME280;61721;42.206;25.320;2023-11-19T10:17:51;99500.88;;;15.68;32.01
73501;BME280;61721;42.206;25.320;2023-11-19T10:20:18;99503.81;;;16.20;31.10
73501;BME280;61721;42.206;25.320;2023-11-19T10:22:46;99489.13;;;16.02;31.29
73501;BME280;61721;42.206;25.320;2023-11-19T10:25:22;99497.31;;;16.15;31.74
73501;BME280;61721;42.206;25.320;2023-11-19T10:27:53;99502.69;;;15.54;31.27
73501;BME280;61721;42.206;25.320;2023-11-19T10:30:23;99490.34;;;16.93;30.21
73501;BME280;61721;42.206;25.320;2023-11-19T10:33:04;99489.38;;;15.66;31.09
73501;BME280;61721;42.206;25.320;2023-11-19T10:35:31;99489.59;;;16.18;30.86
73501;BME280;61721;42.206;25.320;2023-11-19T10:38:00;99478.78;;;17.31;30.54
73501;BME280;61721;42.206;25.320;2023-11-19T10:40:40;99489.88;;;16.56;30.39
73501;BME280;61721;42.206;25.320;2023-11-19T10:43:10;99475.97;;;15.16;32.33
73501;BME280;61721;42.206;25.320;2023-11-19T10:45:38;99463.72;;;16.36;30.15
73501;BME280;61721;42.206;25.320;2023-11-19T10:48:06;99465.03;;;16.86;30.00
73501;BME280;61721;42.206;25.320;2023-11-19T10:50:35;99461.06;;;16.88;30.42
73501;BME280;61721;42.206;25.320;2023-11-19T10:53:04;99467.50;;;16.61;30.28
73501;BME280;61721;42.206;25.320;2023-11-19T10:55:33;99461.25;;;15.80;31.82
73501;BME280;61721;42.206;25.320;2023-11-19T10:58:01;99461.63;;;18.58;27.47
73501;BME280;61721;42.206;25.320;2023-11-19T11:00:39;99464.47;;;17.68;28.96
73501;BME280;61721;42.206;25.320;2023-11-19T11:03:16;99467.03;;;17.43;28.41
73501;BME280;61721;42.206;25.320;2023-11-19T11:05:47;99482.66;;;20.05;25.35
73501;BME280;61721;42.206;25.320;2023-11-19T11:08:15;99481.69;;;18.07;27.62
73501;BME280;61721;42.206;25.320;2023-11-19T11:10:52;99482.19;;;16.67;28.84
73501;BME280;61721;42.206;25.320;2023-11-19T11:13:24;99471.44;;;18.02;27.97
73501;BME280;61721;42.206;25.320;2023-11-19T11:15:55;99477.88;;;17.63;28.63
73501;BME280;61721;42.206;25.320;2023-11-19T11:18:24;99476.53;;;18.62;27.58
73501;BME280;61721;42.206;25.320;2023-11-19T11:20:55;99479.22;;;18.30;27.67
73501;BME280;61721;42.206;25.320;2023-11-19T11:24:12;99470.41;;;18.66;27.04
73501;BME280;61721;42.206;25.320;2023-11-19T11:26:57;99483.22;;;18.66;26.34
73501;BME280;61721;42.206;25.320;2023-11-19T11:29:40;99469.59;;;17.12;30.13
73501;BME280;61721;42.206;25.320;2023-11-19T11:32:20;99466.63;;;18.67;26.66
73501;BME280;61721;42.206;25.320;2023-11-19T11:35:08;99465.19;;;17.17;28.42
73501;BME280;61721;42.206;25.320;2023-11-19T11:37:44;99461.91;;;17.80;28.05
73501;BME280;61721;42.206;25.320;2023-11-19T11:40:14;99452.31;;;18.72;26.74
73501;BME280;61721;42.206;25.320;2023-11-19T11:42:44;99448.28;;;16.89;28.64
73501;BME280;61721;42.206;25.320;2023-11-19T11:45:13;99445.16;;;18.46;27.17
73501;BME280;61721;42.206;25.320;2023-11-19T11:48:13;99426.66;;;17.92;28.50
73501;BME280;61721;42.206;25.320;2023-11-19T11:50:50;99435.72;;;17.79;27.44
73501;BME280;61721;42.206;25.320;2023-11-19T14:28:14;99359.56;;;15.89;29.77
73501;BME280;61721;42.206;25.320;2023-11-19T14:30:49;99373.41;;;16.40;28.63
73501;BME280;61721;42.206;25.320;2023-11-19T14:33:22;99381.72;;;15.93;29.45
73501;BME280;61721;42.206;25.320;2023-11-19T14:35:50;99392.44;;;15.46;29.72
73501;BME280;61721;42.206;25.320;2023-11-19T14:38:17;99385.69;;;14.60;31.10
73501;BME280;61721;42.206;25.320;2023-11-19T14:40:45;99385.00;;;14.09;33.08
73501;BME280;61721;42.206;25.320;2023-11-19T14:43:13;99376.88;;;13.87;32.84
73501;BME280;61721;42.206;25.320;2023-11-19T14:45:41;99366.53;;;12.75;34.28
73501;BME280;61721;42.206;25.320;2023-11-19T14:48:09;99367.38;;;12.23;35.52
73501;BME280;61721;42.206;25.320;2023-11-19T14:50:36;99377.03;;;11.71;36.45
73501;BME280;61721;42.206;25.320;2023-11-19T14:53:03;99379.34;;;11.52;36.88
73501;BME280;61721;42.206;25.320;2023-11-19T14:55:32;99386.59;;;11.51;37.71
73501;BME280;61721;42.206;25.320;2023-11-19T14:57:59;99411.97;;;11.34;37.40
73501;BME280;61721;42.206;25.320;2023-11-19T15:00:28;99426.78;;;12.00;37.03
73501;BME280;61721;42.206;25.320;2023-11-19T15:02:55;99432.69;;;11.33;37.53
73501;BME280;61721;42.206;25.320;2023-11-19T15:05:23;99426.28;;;10.79;38.87
73501;BME280;61721;42.206;25.320;2023-11-19T15:07:50;99421.63;;;11.20;38.12
73501;BME280;61721;42.206;25.320;2023-11-19T15:10:17;99417.75;;;10.43;39.41
73501;BME280;61721;42.206;25.320;2023-11-19T15:12:44;99420.13;;;11.18;37.69
73501;BME280;61721;42.206;25.320;2023-11-19T15:15:12;99414.63;;;10.95;39.49
73501;BME280;61721;42.206;25.320;2023-11-19T15:17:42;99412.59;;;10.97;38.93
73501;BME280;61721;42.206;25.320;2023-11-19T15:20:11;99430.81;;;10.87;39.00
73501;BME280;61721;42.206;25.320;2023-11-19T15:22:41;99453.06;;;10.64;39.73
73501;BME280;61721;42.206;25.320;2023-11-19T15:25:08;99470.25;;;10.47;39.72
73501;BME280;61721;42.206;25.320;2023-11-19T15:27:36;99465.41;;;10.34;40.13
73501;BME280;61721;42.206;25.320;2023-11-19T15:30:04;99457.09;;;10.77;39.60
73501;BME280;61721;42.206;25.320;2023-11-19T15:32:32;99460.59;;;10.93;38.57
73501;BME280;61721;42.206;25.320;2023-11-19T15:35:01;99445.66;;;10.74;39.48
73501;BME280;61721;42.206;25.320;2023-11-19T15:37:28;99433.16;;;10.90;39.38
73501;BME280;61721;42.206;25.320;2023-11-19T15:39:56;99446.72;;;11.60;38.07